Temple, Louisiana
Current Conditions -  °F | °C
As of 2:56 PM on Thursday 23 Oct 2014 (Local Time) from KAQV Reporting Station
Clear Clear  
Wind Chill: 71°   Ceiling: Unl
Heat Index: 71°   Visibility: 10mi
Dew Point: 51°   Wind: 6mph
Humidity: 49%   Direction: NA
Pressure: 30.07"   Gusts: NA
Location:  31.2634°N, 93.0086°W
Report Text: KAQV 231956Z AUTO VRB05KT 10SM CLR 22/11 A3007 RMK AO2 SLP182 T02170106
Loading
Personal Weather Stations






























Interactive Weather Map
Tropical Storm Tracking
New forecast layout! Learn more

10-Day Weather Forecast

Advertisements
Track Severe Weather on mobile